Time;durP1;ratioP1;P1;durP2;ratioP2;P2;SDS_P1;SDS_P2;PMS_P1;PMS_P2;Temp;Humidity;BMP_temperature;BMP_pressure;BME280_temperature;BME280_humidity;BME280_pressure;Samples;Min_cycle;Max_cycle;Signal;HPM_P1;HPM_P2
2021/10/30 00:01:07;;;;;;;1.57;0.90;;;12.60;99.90;;;;;;5051372;28;20171;-69
2021/10/30 00:03:33;;;;;;;0.70;0.50;;;12.50;99.90;;;;;;5051351;28;20695;-69
2021/10/30 00:05:59;;;;;;;1.37;1.00;;;12.40;99.90;;;;;;5050101;28;20198;-68
2021/10/30 00:08:28;;;;;;;1.83;1.10;;;12.40;99.90;;;;;;5066714;28;20175;-69
2021/10/30 00:10:54;;;;;;;1.23;0.90;;;12.40;99.90;;;;;;5066149;28;20688;-70
2021/10/30 00:13:19;;;;;;;0.90;0.90;;;12.30;99.90;;;;;;5067230;28;20452;-70
2021/10/30 00:15:45;;;;;;;0.93;0.77;;;12.30;99.90;;;;;;5051132;28;20195;-69
2021/10/30 00:18:10;;;;;;;0.90;0.80;;;12.10;99.90;;;;;;5052000;28;20269;-70
2021/10/30 00:20:36;;;;;;;3.63;2.00;;;12.10;99.90;;;;;;5052122;28;20183;-70
2021/10/30 00:23:01;;;;;;;2.77;1.00;;;12.10;99.90;;;;;;5051863;28;20225;-69
2021/10/30 00:25:27;;;;;;;1.33;1.23;;;12.10;99.90;;;;;;5050258;28;20536;-69
2021/10/30 00:27:52;;;;;;;0.70;0.60;;;12.10;99.90;;;;;;5050068;28;20198;-67
2021/10/30 00:30:18;;;;;;;2.40;1.90;;;12.10;99.90;;;;;;5050327;28;20923;-68
2021/10/30 00:32:44;;;;;;;1.20;0.83;;;12.10;99.90;;;;;;5051285;28;20175;-67
2021/10/30 00:35:09;;;;;;;3.27;1.03;;;12.20;99.90;;;;;;5052509;28;20209;-68
2021/10/30 00:37:35;;;;;;;2.27;0.90;;;12.20;99.90;;;;;;5070463;28;20197;-69
2021/10/30 00:40:02;;;;;;;3.17;1.50;;;12.00;99.90;;;;;;5054671;28;20175;-69
2021/10/30 00:42:27;;;;;;;1.30;1.20;;;12.10;99.90;;;;;;5053506;28;20187;-69
2021/10/30 00:44:53;;;;;;;1.50;1.40;;;12.00;99.90;;;;;;5054702;28;20432;-69
2021/10/30 00:47:18;;;;;;;3.70;0.90;;;12.20;99.90;;;;;;5054833;28;20186;-69
2021/10/30 00:49:45;;;;;;;0.90;0.80;;;12.10;99.90;;;;;;5054926;28;20183;-68
2021/10/30 00:52:14;;;;;;;2.40;1.33;;;12.00;99.90;;;;;;5053512;28;20232;-69
2021/10/30 00:54:43;;;;;;;0.80;0.67;;;12.00;99.90;;;;;;5054585;28;20417;-69
2021/10/30 00:57:10;;;;;;;0.73;0.60;;;12.10;99.90;;;;;;5053028;28;20818;-69
2021/10/30 00:59:36;;;;;;;0.90;0.70;;;12.00;99.90;;;;;;5054387;28;20513;-70
2021/10/30 01:02:02;;;;;;;1.53;1.43;;;12.00;99.90;;;;;;5054760;28;20536;-70
2021/10/30 01:04:29;;;;;;;1.00;0.90;;;11.90;99.90;;;;;;5066251;28;20410;-68
2021/10/30 01:06:57;;;;;;;0.70;0.60;;;11.90;99.90;;;;;;5054257;28;20447;-70
2021/10/30 01:09:22;;;;;;;2.97;2.77;;;11.80;99.90;;;;;;5054281;28;20492;-68
2021/10/30 01:11:49;;;;;;;0.90;0.70;;;11.80;99.90;;;;;;5054205;28;20501;-70
2021/10/30 01:14:15;;;;;;;1.47;0.80;;;11.70;99.90;;;;;;5054632;28;20175;-69
2021/10/30 01:16:40;;;;;;;1.20;1.10;;;11.80;99.90;;;;;;5054094;28;20578;-69
2021/10/30 01:19:06;;;;;;;1.33;1.20;;;11.70;99.90;;;;;;5054332;28;20198;-68
2021/10/30 01:21:36;;;;;;;1.37;1.27;;;11.70;99.90;;;;;;5058062;28;20171;-68
2021/10/30 01:24:04;;;;;;;1.47;1.37;;;11.60;99.90;;;;;;5054194;28;20175;-69
2021/10/30 01:26:30;;;;;;;0.70;0.60;;;11.60;99.90;;;;;;5053951;28;20432;-69
2021/10/30 01:28:56;;;;;;;1.77;1.00;;;11.60;99.90;;;;;;5052816;28;20777;-68
2021/10/30 01:31:22;;;;;;;0.90;0.70;;;11.50;99.90;;;;;;5053807;28;20534;-68
2021/10/30 01:33:49;;;;;;;3.33;1.17;;;11.50;99.90;;;;;;5054122;28;20413;-68
2021/10/30 01:36:18;;;;;;;1.47;1.37;;;11.50;99.90;;;;;;5053189;28;20293;-72
2021/10/30 01:38:43;;;;;;;0.80;0.80;;;11.50;99.90;;;;;;5053965;28;20473;-68
2021/10/30 01:41:10;;;;;;;0.97;0.87;;;11.60;99.90;;;;;;5053736;28;20512;-69
2021/10/30 01:43:35;;;;;;;1.70;0.97;;;11.60;99.90;;;;;;5053541;28;20198;-69
2021/10/30 01:46:01;;;;;;;0.70;0.50;;;11.60;99.90;;;;;;5053392;28;20444;-70
2021/10/30 01:48:38;;;;;;;1.20;1.10;;;11.70;99.90;;;;;;5053323;28;20567;-69
2021/10/30 01:51:05;;;;;;;2.17;1.73;;;11.70;99.90;;;;;;5053744;28;20163;-69
2021/10/30 01:53:32;;;;;;;0.80;0.60;;;11.60;99.90;;;;;;5053596;28;20421;-71
2021/10/30 01:55:58;;;;;;;1.73;1.60;;;11.70;99.90;;;;;;5054483;28;20543;-71
2021/10/30 01:58:23;;;;;;;1.73;1.27;;;11.60;99.90;;;;;;5054328;28;20466;-69
2021/10/30 02:00:51;;;;;;;2.33;1.57;;;11.50;99.90;;;;;;5053712;28;20178;-71
2021/10/30 02:03:17;;;;;;;1.70;1.30;;;11.50;99.90;;;;;;5053568;28;20198;-71
2021/10/30 02:05:43;;;;;;;0.70;0.70;;;11.50;99.90;;;;;;5054017;28;20995;-71
2021/10/30 02:08:09;;;;;;;10.53;1.50;;;11.50;99.90;;;;;;5053932;28;20409;-71
2021/10/30 02:10:35;;;;;;;1.10;0.80;;;11.50;99.90;;;;;;5054616;28;20163;-71
2021/10/30 02:13:00;;;;;;;0.70;0.60;;;11.40;99.90;;;;;;5053056;28;20489;-71
2021/10/30 02:15:26;;;;;;;1.47;1.13;;;11.50;99.90;;;;;;5053664;28;20179;-69
2021/10/30 02:17:52;;;;;;;1.47;1.37;;;11.50;99.90;;;;;;5053930;28;20215;-71
2021/10/30 02:20:19;;;;;;;1.23;0.70;;;11.60;99.90;;;;;;5053945;28;20175;-71
2021/10/30 02:22:46;;;;;;;4.03;1.10;;;11.60;99.90;;;;;;5053449;28;20586;-71
2021/10/30 02:25:11;;;;;;;0.80;0.70;;;11.60;99.90;;;;;;5053846;28;20406;-71
2021/10/30 02:27:37;;;;;;;4.10;1.87;;;11.60;99.90;;;;;;5053920;28;20441;-71
2021/10/30 02:30:04;;;;;;;3.93;1.03;;;11.60;99.90;;;;;;5053737;28;20174;-71
2021/10/30 02:32:29;;;;;;;2.30;1.07;;;11.60;99.90;;;;;;5053768;28;20175;-71
2021/10/30 02:34:55;;;;;;;1.90;1.80;;;11.60;99.90;;;;;;5053835;28;20413;-71
2021/10/30 02:37:21;;;;;;;0.80;0.70;;;11.60;99.90;;;;;;5053218;28;20195;-70
2021/10/30 02:39:46;;;;;;;1.97;1.77;;;11.70;99.90;;;;;;5053092;28;20174;-70
2021/10/30 02:42:12;;;;;;;1.90;1.80;;;11.60;99.90;;;;;;5053060;28;20195;-71
2021/10/30 02:44:38;;;;;;;0.80;0.70;;;11.60;99.90;;;;;;5053617;28;20203;-72
2021/10/30 02:47:04;;;;;;;1.97;1.40;;;11.70;99.90;;;;;;5053187;28;20225;-71
2021/10/30 02:49:31;;;;;;;1.03;0.93;;;11.60;99.90;;;;;;5052568;28;20167;-71
2021/10/30 02:51:57;;;;;;;1.03;0.93;;;11.70;99.90;;;;;;5053655;28;20417;-70
2021/10/30 02:54:22;;;;;;;0.90;0.60;;;11.60;99.90;;;;;;5053660;28;20475;-71
2021/10/30 02:56:48;;;;;;;0.80;0.80;;;11.70;99.90;;;;;;5052471;28;20199;-71
2021/10/30 02:59:14;;;;;;;3.73;1.73;;;11.60;99.90;;;;;;5052414;28;20178;-70
2021/10/30 03:01:39;;;;;;;0.70;0.60;;;11.60;99.90;;;;;;5050691;28;20943;-72
2021/10/30 03:04:05;;;;;;;3.33;1.20;;;11.70;99.90;;;;;;5053663;28;20180;-70
2021/10/30 03:06:31;;;;;;;1.50;1.10;;;11.70;99.90;;;;;;5051816;28;20183;-71
2021/10/30 03:09:01;;;;;;;0.80;0.70;;;11.60;99.90;;;;;;5051745;28;20164;-70
2021/10/30 03:11:27;;;;;;;0.90;0.80;;;11.60;99.90;;;;;;5052374;28;20420;-71
2021/10/30 03:13:52;;;;;;;0.90;0.70;;;11.70;99.90;;;;;;5052568;28;20433;-71
2021/10/30 03:16:18;;;;;;;0.80;0.70;;;11.70;99.90;;;;;;5052258;28;20195;-71
2021/10/30 03:18:44;;;;;;;1.53;0.97;;;11.80;99.90;;;;;;5052148;28;20173;-70
2021/10/30 03:21:11;;;;;;;1.43;1.00;;;11.80;99.90;;;;;;5052767;28;20167;-71
2021/10/30 03:23:37;;;;;;;0.90;0.80;;;11.80;99.90;;;;;;5051943;28;20543;-71
2021/10/30 03:26:03;;;;;;;9.40;1.10;;;11.80;99.90;;;;;;5051117;28;20528;-72
2021/10/30 03:28:28;;;;;;;0.80;0.70;;;11.80;99.90;;;;;;5051934;28;20527;-71
2021/10/30 03:30:54;;;;;;;1.20;1.10;;;11.80;99.90;;;;;;5052410;28;20409;-71
2021/10/30 03:33:20;;;;;;;1.00;0.73;;;11.70;99.90;;;;;;5051906;28;20246;-70
2021/10/30 03:35:46;;;;;;;2.80;2.60;;;11.70;99.90;;;;;;5051502;28;20504;-69
2021/10/30 03:38:11;;;;;;;0.77;0.77;;;11.60;99.90;;;;;;5050864;28;20248;-71
2021/10/30 03:40:37;;;;;;;0.70;0.50;;;11.60;99.90;;;;;;5052457;28;20186;-70
2021/10/30 03:43:02;;;;;;;1.23;1.00;;;11.50;99.90;;;;;;5051791;28;20190;-70
2021/10/30 03:45:28;;;;;;;0.70;0.50;;;11.50;99.90;;;;;;5051714;28;20168;-69
2021/10/30 03:47:53;;;;;;;0.80;0.70;;;11.40;99.90;;;;;;5052072;28;20187;-71
2021/10/30 03:50:19;;;;;;;1.10;0.93;;;11.30;99.90;;;;;;5050839;28;20167;-70
2021/10/30 03:52:44;;;;;;;0.80;0.70;;;11.30;99.90;;;;;;5051782;28;20198;-70
2021/10/30 03:55:10;;;;;;;2.17;1.27;;;11.30;99.90;;;;;;5050268;28;20697;-70
2021/10/30 03:57:36;;;;;;;1.20;1.10;;;11.30;99.90;;;;;;5051595;28;20229;-68
2021/10/30 04:00:03;;;;;;;0.70;0.50;;;11.30;99.90;;;;;;5052117;28;20178;-70
2021/10/30 04:02:29;;;;;;;1.57;0.83;;;11.30;99.90;;;;;;5051572;28;20705;-70
2021/10/30 04:04:55;;;;;;;2.70;1.10;;;11.30;99.90;;;;;;5051574;28;20449;-70
2021/10/30 04:07:20;;;;;;;0.97;0.97;;;11.20;99.90;;;;;;5052502;28;20236;-70
2021/10/30 04:09:46;;;;;;;0.70;0.50;;;11.30;99.90;;;;;;5052903;28;20166;-70
2021/10/30 04:12:11;;;;;;;1.07;0.97;;;11.30;99.90;;;;;;5056221;28;20186;-71
2021/10/30 04:14:37;;;;;;;0.70;0.50;;;11.40;99.90;;;;;;5054165;28;20182;-70
2021/10/30 04:17:04;;;;;;;1.23;1.13;;;11.30;99.90;;;;;;5058792;28;20229;-69
2021/10/30 04:19:29;;;;;;;0.77;0.63;;;11.40;99.90;;;;;;5063103;28;20424;-70
2021/10/30 04:21:55;;;;;;;2.17;1.90;;;11.40;99.90;;;;;;5056289;28;20794;-70
2021/10/30 04:24:21;;;;;;;1.43;1.00;;;11.40;99.90;;;;;;5055724;28;20447;-70
2021/10/30 04:26:46;;;;;;;3.90;2.93;;;11.40;99.90;;;;;;5055331;28;20655;-70
2021/10/30 04:29:12;;;;;;;3.97;0.90;;;11.40;99.90;;;;;;5055168;28;20187;-70
2021/10/30 04:31:37;;;;;;;1.20;1.10;;;11.30;99.90;;;;;;5055439;28;20232;-71
2021/10/30 04:34:04;;;;;;;0.90;0.90;;;11.40;99.90;;;;;;5054112;28;20228;-71
2021/10/30 04:36:32;;;;;;;0.97;0.70;;;11.30;99.90;;;;;;5053783;28;20221;-70
2021/10/30 04:39:02;;;;;;;0.70;0.50;;;11.30;99.90;;;;;;5053817;28;20429;-70
2021/10/30 04:41:29;;;;;;;1.63;1.00;;;11.40;99.90;;;;;;5053878;28;20463;-70
2021/10/30 04:43:55;;;;;;;1.40;1.30;;;11.40;99.90;;;;;;5055114;28;20461;-71
2021/10/30 04:46:22;;;;;;;0.70;0.57;;;11.40;99.90;;;;;;5055006;28;20437;-70
2021/10/30 04:48:48;;;;;;;4.70;1.13;;;11.40;99.90;;;;;;5056365;28;20428;-70
2021/10/30 04:51:14;;;;;;;1.67;1.57;;;11.40;99.90;;;;;;5056122;28;20413;-70
2021/10/30 04:53:42;;;;;;;0.80;0.80;;;11.60;99.90;;;;;;5056507;28;20424;-70
2021/10/30 04:56:09;;;;;;;1.20;0.80;;;11.60;99.90;;;;;;5054729;28;20973;-70
2021/10/30 04:58:35;;;;;;;0.70;0.70;;;11.60;99.90;;;;;;5070968;28;20499;-70
2021/10/30 05:01:02;;;;;;;0.73;0.57;;;11.70;99.90;;;;;;5058807;28;20521;-70
2021/10/30 05:03:28;;;;;;;1.13;0.90;;;11.60;99.90;;;;;;5055180;28;20547;-70
2021/10/30 05:05:54;;;;;;;1.63;0.90;;;11.60;99.90;;;;;;5054682;28;20421;-71
2021/10/30 05:08:20;;;;;;;1.20;1.07;;;11.70;99.90;;;;;;5055030;28;20428;-71
2021/10/30 05:10:45;;;;;;;0.70;0.60;;;11.60;99.90;;;;;;5053366;28;20774;-71
2021/10/30 05:13:11;;;;;;;1.30;1.00;;;11.60;99.90;;;;;;5055178;28;20981;-71
2021/10/30 05:15:37;;;;;;;0.80;0.53;;;11.60;99.90;;;;;;5053083;28;20183;-70
2021/10/30 05:18:03;;;;;;;1.20;0.83;;;11.70;99.90;;;;;;5056826;28;20925;-70
2021/10/30 05:20:29;;;;;;;0.70;0.50;;;11.70;99.90;;;;;;5054205;28;20186;-71
2021/10/30 05:22:54;;;;;;;0.70;0.50;;;11.80;99.90;;;;;;5054572;28;20544;-70
2021/10/30 05:25:21;;;;;;;3.67;1.03;;;11.80;99.90;;;;;;5052875;28;20253;-71
2021/10/30 05:27:46;;;;;;;1.00;0.70;;;11.80;99.90;;;;;;5054665;28;20187;-71
2021/10/30 05:30:12;;;;;;;2.50;1.03;;;11.90;99.90;;;;;;5054582;28;20425;-71
2021/10/30 05:32:37;;;;;;;0.70;0.60;;;12.00;99.90;;;;;;5054773;28;20644;-71
2021/10/30 05:35:03;;;;;;;0.70;0.50;;;11.90;99.90;;;;;;5053934;28;20179;-70
2021/10/30 05:37:29;;;;;;;1.00;0.90;;;11.80;99.90;;;;;;5054496;28;20191;-70
2021/10/30 05:39:55;;;;;;;0.70;0.60;;;11.90;99.90;;;;;;5054522;28;20817;-70
2021/10/30 05:42:20;;;;;;;0.70;0.60;;;11.90;99.90;;;;;;5054228;28;20287;-71
2021/10/30 05:44:47;;;;;;;0.70;0.50;;;11.90;99.90;;;;;;5052867;28;20178;-67
2021/10/30 05:47:14;;;;;;;1.27;1.17;;;11.80;99.90;;;;;;5053978;28;20260;-71
2021/10/30 05:49:43;;;;;;;0.70;0.50;;;11.80;99.90;;;;;;5054089;28;20416;-71
2021/10/30 05:52:09;;;;;;;1.20;1.10;;;11.80;99.90;;;;;;5053321;28;20926;-71
2021/10/30 05:54:35;;;;;;;0.70;0.57;;;11.80;99.90;;;;;;5054064;28;20428;-70
2021/10/30 05:57:01;;;;;;;1.20;0.63;;;11.90;99.90;;;;;;5052014;28;20518;-71
2021/10/30 05:59:27;;;;;;;1.10;1.00;;;12.00;99.90;;;;;;5053794;28;20433;-71
2021/10/30 06:01:54;;;;;;;3.70;1.37;;;12.00;99.90;;;;;;5054316;28;20234;-71
2021/10/30 06:04:20;;;;;;;0.70;0.57;;;12.00;99.90;;;;;;5053678;28;20915;-69
2021/10/30 06:06:45;;;;;;;1.80;1.70;;;12.00;99.90;;;;;;5052682;28;20455;-70
2021/10/30 06:09:11;;;;;;;1.83;1.73;;;12.00;99.90;;;;;;5052402;28;21192;-71
2021/10/30 06:11:37;;;;;;;0.70;0.50;;;12.00;99.90;;;;;;5054022;28;20636;-71
2021/10/30 06:14:06;;;;;;;1.87;1.60;;;12.00;99.90;;;;;;5053659;28;20228;-71
2021/10/30 06:16:32;;;;;;;0.80;0.80;;;12.00;99.90;;;;;;5068852;28;20449;-71
2021/10/30 06:18:57;;;;;;;0.70;0.50;;;12.00;99.90;;;;;;5053705;28;20420;-71
2021/10/30 06:21:23;;;;;;;0.70;0.60;;;12.10;99.90;;;;;;5053825;28;20926;-71
2021/10/30 06:23:49;;;;;;;0.70;0.60;;;12.00;99.90;;;;;;5053564;28;20692;-70
2021/10/30 06:26:16;;;;;;;2.20;1.77;;;12.00;99.90;;;;;;5053025;28;20214;-71
2021/10/30 06:28:42;;;;;;;1.27;0.80;;;12.10;99.90;;;;;;5053638;28;20429;-71
2021/10/30 06:31:08;;;;;;;2.10;2.00;;;12.10;99.90;;;;;;5052209;28;20413;-71
2021/10/30 06:33:33;;;;;;;0.70;0.60;;;12.10;99.90;;;;;;5052615;28;20175;-71
2021/10/30 06:35:59;;;;;;;0.70;0.60;;;12.10;99.90;;;;;;5052933;28;20182;-71
2021/10/30 06:38:24;;;;;;;1.50;1.37;;;12.10;99.90;;;;;;5053636;28;20169;-70
2021/10/30 06:40:50;;;;;;;0.70;0.50;;;12.10;99.90;;;;;;5068673;28;20198;-71
2021/10/30 06:43:15;;;;;;;0.90;0.70;;;12.10;99.90;;;;;;5063642;28;20194;-71
2021/10/30 06:45:42;;;;;;;0.90;0.63;;;12.10;99.90;;;;;;5050791;28;20174;-70
2021/10/30 06:48:08;;;;;;;0.87;0.77;;;12.10;99.90;;;;;;5051987;28;20178;-71
2021/10/30 06:50:34;;;;;;;2.63;1.00;;;12.00;99.90;;;;;;5051763;28;20413;-71
2021/10/30 06:52:59;;;;;;;0.80;0.60;;;12.00;99.90;;;;;;5053271;28;20167;-71
2021/10/30 06:55:25;;;;;;;0.70;0.50;;;12.00;99.90;;;;;;5052637;28;20194;-70
2021/10/30 06:57:51;;;;;;;1.73;0.60;;;12.10;99.90;;;;;;5053153;28;20598;-71
2021/10/30 07:00:18;;;;;;;0.70;0.53;;;12.00;99.90;;;;;;5053223;28;20632;-71
2021/10/30 07:02:45;;;;;;;0.83;0.70;;;12.10;99.90;;;;;;5052962;28;20536;-71
2021/10/30 07:05:11;;;;;;;1.17;0.83;;;12.10;99.90;;;;;;5052363;28;20575;-71
2021/10/30 07:07:36;;;;;;;0.70;0.50;;;12.10;99.90;;;;;;5052628;28;20465;-71
2021/10/30 07:10:04;;;;;;;0.70;0.60;;;12.10;99.90;;;;;;5052851;28;20459;-71
2021/10/30 07:12:33;;;;;;;0.70;0.60;;;12.10;99.90;;;;;;5052979;28;20171;-70
2021/10/30 07:14:59;;;;;;;0.80;0.80;;;12.10;99.90;;;;;;5052288;28;20428;-71
2021/10/30 07:17:24;;;;;;;1.03;0.93;;;12.10;99.90;;;;;;5052740;28;20801;-71
2021/10/30 07:19:50;;;;;;;0.77;0.70;;;12.10;99.90;;;;;;5052496;28;20167;-71
2021/10/30 07:22:16;;;;;;;1.70;1.60;;;12.20;99.90;;;;;;5052080;28;20197;-70
2021/10/30 07:24:43;;;;;;;1.63;1.10;;;12.10;99.90;;;;;;5059293;28;20448;-70
2021/10/30 07:27:09;;;;;;;0.80;0.60;;;12.10;99.90;;;;;;5052398;28;20190;-70
2021/10/30 07:29:35;;;;;;;1.43;0.77;;;12.10;99.90;;;;;;5050941;28;20456;-70
2021/10/30 07:32:00;;;;;;;0.90;0.83;;;12.10;99.90;;;;;;5066602;28;20445;-71
2021/10/30 07:34:26;;;;;;;0.80;0.80;;;12.10;99.90;;;;;;5050902;28;20206;-70
2021/10/30 07:36:51;;;;;;;1.10;1.00;;;12.10;99.90;;;;;;5052250;28;20194;-70
2021/10/30 07:39:17;;;;;;;1.30;1.07;;;12.10;99.90;;;;;;5052304;28;20239;-70
2021/10/30 07:41:43;;;;;;;1.00;0.80;;;12.20;99.90;;;;;;5067952;28;20258;-71
2021/10/30 07:44:09;;;;;;;1.07;1.00;;;12.20;99.90;;;;;;5058972;28;20762;-71
2021/10/30 07:46:35;;;;;;;0.70;0.50;;;12.30;99.90;;;;;;5052002;28;20207;-71
2021/10/30 07:49:01;;;;;;;1.00;0.90;;;12.40;99.90;;;;;;5052912;28;20494;-71
2021/10/30 07:51:27;;;;;;;0.80;0.67;;;12.40;99.90;;;;;;5052412;28;20492;-70
2021/10/30 07:53:52;;;;;;;1.67;1.17;;;12.40;99.90;;;;;;5050498;28;20175;-70
2021/10/30 07:56:18;;;;;;;2.00;1.40;;;12.50;99.90;;;;;;5050324;28;20299;-71
2021/10/30 07:58:45;;;;;;;0.87;0.67;;;12.40;99.90;;;;;;5051807;28;20179;-71
2021/10/30 08:01:10;;;;;;;0.80;0.60;;;12.50;99.90;;;;;;5051844;28;20794;-70
2021/10/30 08:03:36;;;;;;;1.23;1.10;;;12.50;99.90;;;;;;5051425;28;20444;-70
2021/10/30 08:06:02;;;;;;;2.70;2.50;;;12.50;99.90;;;;;;5051198;28;20533;-70
2021/10/30 08:08:28;;;;;;;1.10;0.63;;;12.50;99.90;;;;;;5051437;28;20236;-70
2021/10/30 08:10:53;;;;;;;1.60;1.33;;;12.50;99.90;;;;;;5050986;28;20178;-70
2021/10/30 08:13:19;;;;;;;1.07;0.70;;;12.60;99.90;;;;;;5051451;28;20463;-70
2021/10/30 08:15:45;;;;;;;1.17;1.07;;;12.50;99.90;;;;;;5050511;28;20174;-69
2021/10/30 08:18:10;;;;;;;0.77;0.67;;;12.40;99.90;;;;;;5051082;28;20171;-69
2021/10/30 08:20:36;;;;;;;2.70;2.10;;;12.30;99.90;;;;;;5051428;28;20174;-69
2021/10/30 08:23:01;;;;;;;4.10;2.10;;;12.30;99.90;;;;;;5034993;28;20214;-69
2021/10/30 08:25:27;;;;;;;0.70;0.60;;;12.20;99.90;;;;;;5050986;28;20171;-69
2021/10/30 08:27:53;;;;;;;0.90;0.80;;;12.20;99.90;;;;;;5051532;28;20225;-69
2021/10/30 08:30:19;;;;;;;0.70;0.50;;;12.20;99.90;;;;;;5049425;28;20872;-69
2021/10/30 08:32:45;;;;;;;0.90;0.80;;;12.10;99.90;;;;;;5051240;28;20417;-69
2021/10/30 08:35:11;;;;;;;0.70;0.60;;;12.20;99.90;;;;;;5050862;28;20167;-69
2021/10/30 08:37:38;;;;;;;0.80;0.80;;;12.30;99.90;;;;;;5051244;28;20444;-68
2021/10/30 08:40:10;;;;;;;4.53;1.53;;;12.40;99.90;;;;;;5049876;28;20548;-70
2021/10/30 08:42:36;;;;;;;0.70;0.50;;;12.80;99.90;;;;;;5051106;28;21290;-69
2021/10/30 08:45:05;;;;;;;0.70;0.50;;;13.20;99.90;;;;;;5050784;28;20417;-68
2021/10/30 08:47:31;;;;;;;0.80;0.80;;;13.50;99.90;;;;;;5049740;28;20993;-68
2021/10/30 08:49:58;;;;;;;0.80;0.70;;;13.80;99.90;;;;;;5051111;28;20421;-67
2021/10/30 08:52:24;;;;;;;0.70;0.50;;;14.00;99.90;;;;;;5051093;28;20427;-69
2021/10/30 08:54:50;;;;;;;1.10;0.60;;;14.20;99.90;;;;;;5049289;28;20792;-68
2021/10/30 08:57:15;;;;;;;0.70;0.50;;;14.30;99.90;;;;;;5054057;28;20218;-69
2021/10/30 08:59:44;;;;;;;0.70;0.60;;;14.40;99.90;;;;;;5053409;28;20178;-68
2021/10/30 09:02:34;;;;;;;1.03;0.80;;;14.50;99.90;;;;;;5054556;28;20651;-68
2021/10/30 09:05:11;;;;;;;0.70;0.50;;;14.60;99.90;;;;;;5053119;28;20417;-69
2021/10/30 09:07:38;;;;;;;1.40;0.80;;;14.70;99.90;;;;;;5053069;28;20440;-68
2021/10/30 09:10:12;;;;;;;0.70;0.50;;;14.80;99.90;;;;;;5054124;28;20911;-69
2021/10/30 09:12:38;;;;;;;0.70;0.53;;;14.80;99.90;;;;;;5053787;28;20753;-68
2021/10/30 09:15:04;;;;;;;1.50;1.33;;;14.90;99.90;;;;;;5053834;28;20424;-68
2021/10/30 09:17:30;;;;;;;0.80;0.60;;;14.90;99.90;;;;;;5054389;28;20198;-69
2021/10/30 09:19:55;;;;;;;0.70;0.50;;;14.90;99.90;;;;;;5054297;28;20767;-69
2021/10/30 09:22:23;;;;;;;1.40;0.93;;;14.70;99.90;;;;;;5052842;28;20231;-70
2021/10/30 09:24:58;;;;;;;0.70;0.50;;;14.40;99.90;;;;;;5054012;28;20203;-69
2021/10/30 09:27:55;;;;;;;1.13;1.03;;;14.20;99.90;;;;;;5054045;28;20437;-70
2021/10/30 09:30:27;;;;;;;4.83;1.57;;;14.10;99.90;;;;;;5053223;28;20489;-72
2021/10/30 09:32:58;;;;;;;0.70;0.50;;;14.00;99.90;;;;;;5054594;28;20405;-72
2021/10/30 09:35:41;;;;;;;0.80;0.70;;;14.00;99.90;;;;;;5053633;28;20426;-71
2021/10/30 09:38:10;;;;;;;0.70;0.50;;;14.00;99.90;;;;;;5054257;28;20445;-71
2021/10/30 09:40:36;;;;;;;0.70;0.50;;;14.00;99.90;;;;;;5052990;28;20417;-71
2021/10/30 09:43:19;;;;;;;0.70;0.50;;;14.00;99.90;;;;;;5052899;28;20453;-72
2021/10/30 09:45:48;;;;;;;0.90;0.80;;;13.90;99.90;;;;;;5053112;28;20174;-69
2021/10/30 09:48:17;;;;;;;1.00;0.90;;;13.90;99.90;;;;;;5053638;28;20486;-69
2021/10/30 09:50:43;;;;;;;0.80;0.60;;;13.90;99.90;;;;;;5053623;28;20421;-69
2021/10/30 09:53:31;;;;;;;0.70;0.53;;;13.80;99.90;;;;;;5052524;28;20420;-69
2021/10/30 09:56:12;;;;;;;1.23;1.13;;;13.80;99.90;;;;;;5052378;28;20416;-69
2021/10/30 09:58:39;;;;;;;0.80;0.80;;;13.60;99.90;;;;;;5052882;28;20567;-71
2021/10/30 10:01:08;;;;;;;1.23;1.13;;;13.60;99.90;;;;;;5053526;28;20474;-69
2021/10/30 10:03:34;;;;;;;1.07;0.97;;;13.50;99.90;;;;;;5052894;28;20969;-70
2021/10/30 10:06:03;;;;;;;1.20;0.90;;;13.30;99.90;;;;;;5051695;28;20425;-69
2021/10/30 10:08:29;;;;;;;1.23;0.93;;;13.30;99.90;;;;;;5052957;28;20425;-70
2021/10/30 10:10:55;;;;;;;4.57;2.10;;;13.20;99.90;;;;;;5052957;28;20426;-69
2021/10/30 10:13:22;;;;;;;0.80;0.80;;;13.20;99.90;;;;;;5053513;28;20179;-69
2021/10/30 10:15:50;;;;;;;0.90;0.70;;;13.00;99.90;;;;;;5050836;28;20426;-70
2021/10/30 10:18:16;;;;;;;1.53;1.43;;;13.00;99.90;;;;;;5052708;28;20429;-68
2021/10/30 10:20:42;;;;;;;1.67;1.57;;;12.80;99.90;;;;;;5053061;28;20421;-70
2021/10/30 10:23:08;;;;;;;1.43;1.33;;;12.90;99.90;;;;;;5053010;28;20448;-71
2021/10/30 10:25:35;;;;;;;0.90;0.80;;;13.00;99.90;;;;;;5051599;28;20174;-69
2021/10/30 10:28:23;;;;;;;2.43;2.30;;;12.90;99.90;;;;;;5051562;28;20187;-70
2021/10/30 10:31:00;;;;;;;3.23;3.03;;;12.90;99.90;;;;;;5052463;28;20421;-70
2021/10/30 10:33:27;;;;;;;1.20;1.10;;;12.90;99.90;;;;;;5052927;28;20805;-70
2021/10/30 10:36:14;;;;;;;1.40;1.27;;;12.80;99.90;;;;;;5053335;28;20413;-71
2021/10/30 10:38:57;;;;;;;1.63;1.10;;;12.80;99.90;;;;;;5053016;28;20460;-70
2021/10/30 10:41:38;;;;;;;0.87;0.60;;;12.80;99.90;;;;;;5052701;28;20440;-69
2021/10/30 10:44:08;;;;;;;1.17;1.07;;;12.70;99.90;;;;;;5052783;28;21043;-69
2021/10/30 10:46:41;;;;;;;1.00;0.90;;;12.70;99.90;;;;;;5051999;28;20955;-70
2021/10/30 10:49:14;;;;;;;1.43;1.30;;;12.70;99.90;;;;;;5052786;28;20425;-71
2021/10/30 10:52:02;;;;;;;0.90;0.90;;;12.60;99.90;;;;;;5052687;28;20413;-72
2021/10/30 10:54:48;;;;;;;1.20;0.90;;;12.60;99.90;;;;;;5052858;28;20418;-71
2021/10/30 10:57:26;;;;;;;1.70;1.13;;;12.60;99.90;;;;;;5051994;28;20465;-71
2021/10/30 11:00:29;;;;;;;1.20;1.10;;;12.60;99.90;;;;;;5067198;28;20425;-71
2021/10/30 11:02:56;;;;;;;1.00;0.90;;;12.60;99.90;;;;;;5042642;28;20487;-71
2021/10/30 11:05:21;;;;;;;0.90;0.80;;;12.70;99.90;;;;;;5052247;28;20960;-72
2021/10/30 11:07:51;;;;;;;1.23;1.13;;;12.70;99.90;;;;;;5051168;28;20449;-72
2021/10/30 11:10:30;;;;;;;2.03;1.33;;;12.70;99.90;;;;;;5052228;28;20419;-71
2021/10/30 11:13:01;;;;;;;0.90;0.60;;;12.70;99.90;;;;;;5051432;28;20424;-71
2021/10/30 11:15:27;;;;;;;1.20;1.10;;;12.70;99.90;;;;;;5061994;28;20846;-71
2021/10/30 11:18:04;;;;;;;0.77;0.77;;;12.70;99.90;;;;;;5052543;28;20536;-71
2021/10/30 11:20:36;;;;;;;2.20;2.10;;;12.60;99.90;;;;;;5051951;28;20413;-71
2021/10/30 11:23:04;;;;;;;1.27;1.10;;;12.70;99.90;;;;;;5051034;28;20461;-71
2021/10/30 11:25:33;;;;;;;0.80;0.80;;;12.70;99.90;;;;;;5051836;28;20842;-70
2021/10/30 11:28:00;;;;;;;2.10;0.97;;;12.60;99.90;;;;;;5040936;28;20776;-71
2021/10/30 11:30:33;;;;;;;1.10;0.83;;;12.60;99.90;;;;;;5052040;28;20414;-70
2021/10/30 11:33:21;;;;;;;1.43;1.33;;;12.70;99.90;;;;;;5052281;28;20504;-70
2021/10/30 11:36:08;;;;;;;1.03;0.70;;;12.70;99.90;;;;;;5051864;28;21020;-70
2021/10/30 11:38:37;;;;;;;2.27;1.00;;;12.70;99.90;;;;;;5050773;28;20613;-71
2021/10/30 11:41:06;;;;;;;1.00;0.70;;;12.70;99.90;;;;;;5050871;28;20467;-71
2021/10/30 11:43:34;;;;;;;0.70;0.50;;;12.80;99.90;;;;;;5052058;28;20553;-70
2021/10/30 11:46:06;;;;;;;1.33;1.23;;;12.80;99.90;;;;;;5051698;28;20425;-71
2021/10/30 11:48:36;;;;;;;1.23;0.83;;;13.00;99.90;;;;;;5051554;28;20425;-70
2021/10/30 11:51:02;;;;;;;1.67;1.37;;;13.10;99.90;;;;;;5051503;28;20821;-71
2021/10/30 11:53:48;;;;;;;0.70;0.50;;;13.40;99.90;;;;;;5051225;28;20779;-69
2021/10/30 11:56:24;;;;;;;0.70;0.50;;;13.70;99.90;;;;;;5050967;28;20861;-69
2021/10/30 11:58:53;;;;;;;1.57;0.60;;;14.10;99.90;;;;;;5051439;28;20443;-70
2021/10/30 12:01:34;;;;;;;0.70;0.50;;;14.30;99.90;;;;;;5051113;28;20445;-72
2021/10/30 12:04:24;;;;;;;1.50;0.73;;;14.40;99.90;;;;;;5051449;28;20457;-70
2021/10/30 12:07:01;;;;;;;0.80;0.60;;;14.60;99.90;;;;;;5050670;28;20437;-72
2021/10/30 12:09:31;;;;;;;0.80;0.57;;;14.80;99.90;;;;;;5040331;28;20480;-72
2021/10/30 12:12:03;;;;;;;0.83;0.70;;;14.90;99.90;;;;;;5050431;28;20417;-71
2021/10/30 12:14:42;;;;;;;0.70;0.50;;;14.90;99.90;;;;;;5051226;28;20421;-70
2021/10/30 12:17:13;;;;;;;2.40;0.80;;;15.00;99.90;;;;;;5053513;28;20483;-72
2021/10/30 12:19:41;;;;;;;0.70;0.50;;;15.00;99.90;;;;;;5051147;28;20421;-71
2021/10/30 12:22:08;;;;;;;1.80;1.70;;;15.00;99.90;;;;;;5052746;28;20919;-72
2021/10/30 12:24:35;;;;;;;0.70;0.50;;;15.00;99.90;;;;;;5052630;28;20508;-72
2021/10/30 12:27:03;;;;;;;0.70;0.53;;;15.10;99.90;;;;;;5049800;28;20464;-70
2021/10/30 12:29:31;;;;;;;0.70;0.50;;;15.00;99.90;;;;;;5050013;28;20409;-70
2021/10/30 12:32:04;;;;;;;1.30;1.03;;;15.00;99.90;;;;;;5053834;28;20798;-70
2021/10/30 12:34:31;;;;;;;0.80;0.70;;;15.10;99.90;;;;;;5054064;28;20844;-72
2021/10/30 12:37:00;;;;;;;0.90;0.60;;;15.20;99.90;;;;;;5055006;28;20495;-70
2021/10/30 12:39:27;;;;;;;0.70;0.50;;;15.20;99.90;;;;;;5053750;28;20449;-69
2021/10/30 12:41:54;;;;;;;0.70;0.50;;;15.20;99.90;;;;;;5054663;28;20421;-70
2021/10/30 12:44:24;;;;;;;0.87;0.60;;;15.20;99.90;;;;;;5054968;28;20488;-69
2021/10/30 12:46:59;;;;;;;0.70;0.50;;;15.20;99.90;;;;;;5054216;28;20441;-70
2021/10/30 12:49:26;;;;;;;0.70;0.50;;;15.30;99.90;;;;;;5054626;28;20513;-71
2021/10/30 12:51:57;;;;;;;0.90;0.63;;;15.30;99.90;;;;;;5054831;28;20432;-69